Meteopozuelo

Informes METAR próximos a MeteoPozuelo

 

LEVS - Cuatro Vientos (Madrid) España
Actualización: 06/06/2023 17:30
Few Clouds
Few Clouds
 Viento del varies
Viento: varies 7 km/h
Temperatura: 27°C
Punto de Rocío: 11°C
Humedad: 37%
Barómetro: 1013 hPa
Clouds: Few Clouds
Visibility: 10 km
Cloud details: Few Clouds 1524 m
2023/06/06 15:30 LEVS 061530Z VRB04KT 9999 FEW050 27/11 Q1013
LEGT - Getafe (Madrid ) España
Actualización: 06/06/2023 17:30
Despejado
Despejado
 Viento del varies
Viento: varies 4 km/h
Temperatura: 27°C
Punto de Rocío: 11°C
Humedad: 37%
Barómetro: 1013 hPa
Resumen: Despejado
Visibility: greater than 10 km
2023/06/06 15:30 LEGT 061530Z VRB02KT CAVOK 27/11 Q1013
 
LEMD - Barajas (Madrid) España
Actualización: 06/06/2023 17:30
Parcialmente nuboso
Parcialmente nuboso
 Viento del ESE
Viento: ESE 7 km/h
Temperatura: 29°C
Punto de Rocío: 12°C
Humedad: 35%
Barómetro: 1013 hPa
Clouds: Parcialmente nuboso
Visibility: 10 km
Cloud details: Parcialmente nuboso 1981 m
2023/06/06 15:30 LEMD 061530Z 11004KT 9999 SCT065 29/12 Q1013 NOSIG
LETO - Torrejon de Ardoz (Madrid) España
Actualización: 06/06/2023 17:00
Few Clouds
Few Clouds
 Viento del S
Viento: S 6 km/h
Temperatura: 28°C
Punto de Rocío: 10°C
Humedad: 32%
Barómetro: 1013 hPa
Clouds: Few Clouds
Visibility: 10 km
Cloud details: Few Clouds 1737 m
2023/06/06 15:00 LETO 061500Z 18003KT 9999 FEW057 28/10 Q1013 NOSIG
 
LECV - Colmenar Viejo (Madrid)
Actualización: 06/06/2023 17:30
Few Clouds
Few Clouds
 Viento del varies
Viento: varies 4 km/h
Temperatura: 24°C
Punto de Rocío: 11°C
Humedad: 44%
Barómetro: 1015 hPa
Clouds: Few Clouds
Visibility: 10 km
Cloud details: Few Clouds 1646 m
2023/06/06 15:30 LECV 061530Z VRB02KT 9999 FEW054TCU 24/11 Q1015